Tiempo atmosférico en la estación meteorológica de Buitrago del Lozoya, Madrid (1026 m.)



Fecha
DESCASC
Temp. máxima en grados centígrados (hora)
DESCASC
Temp. mínima en grados centígrados (hora)
DESCASC
Temp. media en grados centígrados
DESCASC
Racha de viento máxima en m/sg (hora)
DESCASC
Velocidad máxima media en intervalos de 10 minutos(hora)
DESCASC
Precipitaciones diarias en mm
DESCASC
Precipitaciones de 00:00 a 06:00 en mm
DESCASC
Precipitaciones de 06:00 a 12:00 en mm
DESCASC
Precipitaciones de 12:00 a 18:00 en mm
DESCASC
Precipitaciones de 18:00 a 24:00 en mm
DESCASC
31-05-2020 -- (--) -- (--) -- -- (--) -- (--) -- -- -- 0 11.7
30-05-2020 27.5 (16:50) 9.4 (07:10) 18.4 6.67 (21:00) 3.33 (21:00) 0 0 0 0 0
29-05-2020 -- (--) -- (--) -- -- (--) -- (--) -- 0 -- 0 0
28-05-2020 -- (--) -- (--) -- -- (--) -- (--) -- 0 -- -- --
27-05-2020 -- (--) -- (--) -- -- (--) -- (--) -- 0 -- -- --
26-05-2020 -- (--) -- (--) -- -- (--) -- (--) -- 0 -- -- --
25-05-2020 25.7 (13:10) 12.9 (00:00) 19.3 11.39 (14:50) 4.72 (20:00) 28.1 0 0 19.8 8.3
24-05-2020 -- (--) -- (--) -- -- (--) -- (--) 0 0 0 0 0
23-05-2020 -- (--) -- (--) -- 6.94 (20:50) 3.33 (21:00) 0 0 0 0 0
22-05-2020 -- (--) -- (--) -- -- (--) -- (--) -- 0 -- -- --
21-05-2020 -- (--) -- (--) -- 4.72 (16:40) 2.22 (01:10) 0 0 0 0 0
20-05-2020 26.4 (18:20) 5.7 (00:00) 16 6.11 (17:20) 3.33 (15:10) 0 0 0 0 0
19-05-2020 25.7 (17:30) 5.7 (00:00) 15.7 6.67 (16:00) 3.06 (12:20) 0 0 0 0 0
18-05-2020 -- (--) -- (--) -- 9.72 (15:10) 5.28 (15:20) -- 0 0 0 --
17-05-2020 20.1 (17:40) 4.2 (00:00) 12.2 6.11 (19:40) 3.06 (19:50) 0 0 0 0 0
16-05-2020 17.7 (15:00) 8.7 (00:00) 13.2 7.22 (19:30) 3.33 (14:00) 0.1 0 0.1 0 0
15-05-2020 16.7 (16:30) 4.7 (00:00) 10.7 8.06 (17:20) 3.89 (18:00) 7.9 0 0.3 2.4 5.2
14-05-2020 11.7 (16:20) 7 (00:00) 9.3 5.56 (08:50) 2.22 (13:50) 3.1 0 2.4 0.7 0
13-05-2020 14.4 (15:50) 7.6 (00:00) 11 6.11 (15:50) 3.33 (15:50) 2.4 1.5 0.3 0.6 0
12-05-2020 14.5 (14:10) 5.5 (00:00) 10 7.22 (15:40) 3.61 (16:10) 9 0 0.1 1.9 7
11-05-2020 17.3 (13:40) 5.7 (00:00) 11.5 8.33 (14:00) 4.44 (13:40) 6.6 0 0 5.5 1.1
10-05-2020 16.8 (17:10) 8.3 (00:00) 12.5 8.61 (14:40) 4.44 (19:00) 4.6 0.2 4.3 0.1 0
09-05-2020 -- (--) -- (--) -- -- (--) -- (--) -- 0 -- -- 0
08-05-2020 -- (--) -- (--) -- -- (--) -- (--) -- -- 0.3 -- --
07-05-2020 -- (--) -- (--) -- -- (--) -- (--) -- 0 -- -- --
06-05-2020 22.9 (18:00) 4.8 (00:00) 13.8 6.11 (15:20) 2.5 (15:20) 0 0 0 0 0
05-05-2020 21.1 (18:00) 6.5 (00:00) 13.8 6.67 (19:20) 3.33 (15:10) 0.2 0 0.2 0 0
04-05-2020 -- (--) -- (--) -- -- (--) -- (--) -- 0 -- -- --
03-05-2020 24.6 (16:50) 6.6 (00:00) 15.6 7.5 (15:40) 3.89 (17:10) 0 0 0 0 0

Gráficas

Temp. máximas Temp. mínimas Temp. medias Precipitaciones Rachas de viento máximas Velocidades máximas media en intervalos de 10 minutos

Datos horarios

Fecha y hora oficial Temperatura (ºC) Velocidad del viento (km/h) Dirección del viento Racha (km/h) Dirección de racha Precipitación (mm) Presión (hPa) Tendencia (hPa) Humedad (%)
2020-06-01 23:00:00 17.3 2 Noroeste 5 Noroeste 0 902.7 0.8 70
2020-06-01 22:00:00 18.9 0 Calma 10 Noroeste 0 902.3 0.3 62
2020-06-01 21:00:00 21.2 4 Oeste 9 Sudoeste 0 902.2 0.3 53
2020-06-01 20:00:00 23.4 3 Sur 13 Sur 0 901.9 -0.1 41
2020-06-01 19:00:00 24.1 7 Sur 15 Sudoeste 0 902 -0.2 41
2020-06-01 18:00:00 24.7 9 Sur 19 Sur 0 901.9 -0.3 40
2020-06-01 17:00:00 24 6 Sur 19 Sur 0 902 -0.4 43
2020-06-01 16:00:00 22.4 9 Sur 17 Sudeste 0 902.2 -0.5 48
2020-06-01 15:00:00 22.3 6 Este 18 Sudeste 0 902.2 -0.5 50
2020-06-01 14:00:00 23.4 6 Este 17 Sudeste 0 902.4 -0.1 51
2020-06-01 13:00:00 22.3 6 Sudeste 15 Este 0 902.7 0.2 53
2020-06-01 12:00:00 20.8 5 Sudeste 12 Sudeste 0 902.7 0.6 56
2020-06-01 11:00:00 19.5 3 Este 9 Nordeste 0 902.5 -- 63
2020-06-01 10:00:00 17.7 0 Calma 7 Sudoeste 0 902.5 -- 70
2020-06-01 09:00:00 13.8 2 Sudoeste 7 Noroeste 0 902.1 -- 91
2020-06-01 08:00:00 11 3 Oeste 8 Oeste 0 901.7 -- 93
2020-06-01 07:00:00 9.8 0 Calma 4 Noroeste 0 901.4 -- 93
2020-06-01 06:00:00 10.5 0 Calma 3 Noroeste 0 901.2 -- 93
2020-06-01 05:00:00 11.2 0 Calma 5 Norte 0 901.1 -- 92
2020-06-01 04:00:00 12.1 5 Noroeste 9 Noroeste 0 901.2 -- 92
2020-06-01 03:00:00 12.9 0 Calma 8 Noroeste 0 901.7 -- 91
2020-06-01 02:00:00 13.3 5 Noroeste 15 Nordeste 0 902.3 -- 90
2020-06-01 01:00:00 13.7 6 Nordeste 21 Norte 0.2 901.6 -- 88
2020-06-01 00:00:00 14.2 9 Noroeste 24 Noroeste 0.8 903 -- 87
2020-05-31 23:00:00 14.1 5 Noroeste 36 Noroeste 3 903.2 -- 90
2020-05-31 22:00:00 13.7 12 Noroeste 27 Noroeste 5.4 901 -- 91
2020-05-31 21:00:00 14.5 6 Noroeste 56 Sur 2.5 901.6 -- 82
2020-05-31 20:00:00 22.6 3 Sudoeste 12 Oeste 0 898.8 -- 53
2020-05-31 19:00:00 24.1 3 Sudoeste 9 Sudoeste 0 899 -- 47
2020-05-31 18:00:00 23.7 3 Oeste 15 Noroeste 0 898.9 -- 46
2020-05-31 17:00:00 20.2 8 Noroeste 22 Oeste 0 899.4 -- 54
2020-05-31 16:00:00 21.4 2 Noroeste 11 Oeste 0 900.2 -- 61
2020-05-31 15:00:00 22.6 5 Oeste 12 Norte 0 899.7 -- 53
2020-05-31 14:00:00 22.1 3 Sudoeste 9 Este 0 900.2 -- 55
2020-05-31 13:00:00 23.5 2 Sudeste 12 Sur 0 900.2 -- 46
2020-05-31 12:00:00 22.7 2 Sudeste 6 Sudeste 0 900.3 -- 51
2020-05-31 11:00:00 21.4 0 Calma 6 Sudeste 0 900.2 -- 56
2020-05-31 10:00:00 19.7 2 Nordeste 6 Este 0 900 -- 59
2020-05-31 09:00:00 17 2 Noroeste -- -- -- 900 -- 72
2020-05-31 08:00:00 -- -- -- -- -- -- -- -- --
2020-05-31 07:00:00 -- 0 Calma -- -- -- -- -- --
2020-05-31 06:00:00 -- -- -- -- -- -- -- -- --
2020-05-31 05:00:00 13.6 6 Noroeste 11 Oeste 0 900.1 -- 77
2020-05-31 04:00:00 14.8 0 Calma 12 Noroeste 0 900 -- 73
2020-05-31 03:00:00 16.4 7 Noroeste 14 Noroeste 0 900.1 -- 69
2020-05-31 02:00:00 16.9 2 Oeste -- -- -- 899.8 -- 69
2020-05-31 01:00:00 17.3 0 Calma 7 Noroeste 0 900.3 -- 60
2020-05-31 00:00:00 18.3 3 Noroeste 11 Sudoeste 0 900.3 -- 52
2020-05-30 23:00:00 19.2 3 Noroeste 10 Sudoeste 0 900.7 -- 50
2020-05-30 22:00:00 20.7 5 Noroeste 23 Oeste 0 900.2 -- 46
2020-05-30 21:00:00 21.8 12 Oeste 24 Oeste 0 899.9 -- 45
2020-05-30 20:00:00 23.7 4 Oeste 13 Sudoeste 0 899.3 -- 45
2020-05-30 19:00:00 25.7 5 Sur 16 Sur 0 899.3 -- 37
2020-05-30 18:00:00 26.6 5 Sudeste 17 Sur 0 899.2 -- 35
2020-05-30 17:00:00 26.1 6 Sur 21 Sur 0 899.7 -- 36
2020-05-30 16:00:00 26.3 8 Sudeste 19 Sudeste 0 900.2 -- 39
2020-05-30 15:00:00 26.5 7 Sudeste 19 Sur 0 900.6 -- 42
2020-05-30 14:00:00 25.2 9 Sudeste 18 Sudeste 0 901 -- 43
2020-05-30 13:00:00 24.6 4 Este 11 Sudeste 0 901.4 -- 42
2020-05-30 12:00:00 23.3 2 Sur 11 Sur 0 901.7 -- 43
2020-05-30 11:00:00 21.1 3 Norte 6 Nordeste 0 902.3 -- 43
2020-05-30 10:00:00 19.7 0 Calma 6 Oeste 0 902.6 -- 56
2020-05-30 09:00:00 16.8 3 Oeste 6 Oeste 0 902.7 -- 69
2020-05-30 08:00:00 12.7 0 Calma 4 Sudeste 0 902.6 -- 83
2020-05-30 07:00:00 9.5 0 Calma 6 Noroeste 0 902.4 -- 85
2020-05-30 06:00:00 10.3 4 Noroeste 7 Noroeste 0 901.7 -- 83
2020-05-30 05:00:00 11.8 2 Noroeste 8 Noroeste 0 901.8 -- 77
2020-05-30 04:00:00 11.3 3 Noroeste 7 Oeste 0 901.8 -- 80
2020-05-30 03:00:00 11.8 0 Calma 6 Noroeste 0 901.9 -- 77
2020-05-30 02:00:00 12.7 4 Noroeste 11 Oeste 0 902 -- 73
2020-05-30 01:00:00 13.5 5 Noroeste 8 Noroeste 0 902 -- 72
2020-05-30 00:00:00 15.7 2 Oeste 10 Oeste 0 902 -- 61
2020-05-29 23:00:00 16.7 4 Noroeste 9 Noroeste 0 901.9 -- 59
2020-05-29 22:00:00 19.4 0 Calma 9 Noroeste 0 901.1 -- 46
2020-05-29 21:00:00 23.8 5 Norte 12 Norte 0 900.8 -- 35
2020-05-29 20:00:00 26.5 5 Norte 15 Norte 0 900.8 -- 28
2020-05-29 19:00:00 27.2 5 Norte 16 Noroeste 0 901 -- 26
2020-05-29 18:00:00 27.3 8 Norte 15 Norte 0 901.2 -- 26
2020-05-29 17:00:00 27.5 3 Noroeste 14 Nordeste 0 901.8 -- 26
2020-05-29 16:00:00 26.8 3 Este 14 Sudeste 0 901.8 -- 32
2020-05-29 15:00:00 26 4 Sudoeste 15 Sudeste 0 902.5 -- 35
2020-05-29 14:00:00 25.2 5 Sudeste 14 Este 0 903.3 -- 37
2020-05-29 13:00:00 24.3 4 Nordeste 11 Este 0 904 -- 40
2020-05-29 12:00:00 22.7 4 Este 13 Sudeste 0 904.6 -- 47
2020-05-29 11:00:00 21.1 0 Calma -- -- -- 905.1 -- 49
2020-05-29 10:00:00 18.5 2 Sudeste -- -- -- 905.4 -- 59
2020-05-29 09:00:00 15.1 0 Calma 5 Oeste 0 905.4 -- 70
2020-05-29 08:00:00 11.3 2 Oeste 5 Oeste 0 905.7 -- 85
2020-05-29 07:00:00 7.9 0 Calma 6 Noroeste 0 906.1 -- 89
2020-05-29 06:00:00 8.6 0 Calma 10 Oeste 0 906 -- 85
2020-05-29 05:00:00 9 3 Noroeste 9 Oeste 0 906.3 -- 85
2020-05-29 04:00:00 9.2 3 Oeste 7 Oeste 0 906.5 -- 85
2020-05-29 03:00:00 9.6 2 Noroeste 4 Noroeste 0 906.8 -- 82
2020-05-29 02:00:00 10.7 2 Noroeste 5 Noroeste 0 906.9 -- 77
2020-05-29 01:00:00 11.4 0 Calma 6 Noroeste 0 907.2 -- 74
2020-05-29 00:00:00 12.3 3 Norte 7 Noroeste 0 907.1 -- 70
2020-05-28 23:00:00 14.2 2 Noroeste 6 Noroeste 0 907 -- 62
2020-05-28 22:00:00 17.9 0 Calma -- -- -- 906.5 -- 49
2020-05-28 21:00:00 -- -- -- -- -- -- -- -- --
2020-05-28 20:00:00 -- -- -- -- -- -- -- -- --
2020-05-28 19:00:00 -- -- -- -- -- -- -- -- --
2020-05-28 18:00:00 -- -- -- -- -- -- -- -- --
2020-05-28 17:00:00 -- -- -- -- -- -- -- -- --
2020-05-28 16:00:00 -- -- -- -- -- -- -- -- --
2020-05-28 15:00:00 -- -- -- -- -- -- -- -- --
2020-05-28 14:00:00 -- -- -- -- -- -- -- -- --
2020-05-28 13:00:00 -- -- -- -- -- -- -- -- --
2020-05-28 12:00:00 -- -- -- -- -- -- -- -- --
2020-05-28 11:00:00 -- -- -- -- -- -- -- -- --
2020-05-28 10:00:00 18.4 4 Sur 9 Sur 0 910.7 -- 55
2020-05-28 09:00:00 16.8 0 Calma 4 Sudeste 0 910.7 -- 73
2020-05-28 08:00:00 12.5 0 Calma 4 Este 0 910.9 -- 86
2020-05-28 07:00:00 -- 0 Calma 3 Noroeste 0 -- -- --
2020-05-28 06:00:00 11.2 3 Noroeste 7 Noroeste 0 910.7 -- 87
2020-05-28 05:00:00 11.2 3 Noroeste 5 Noroeste 0 910.8 -- 85
2020-05-28 04:00:00 12.2 3 Oeste 6 Oeste 0 910.9 -- 82
2020-05-28 03:00:00 13.3 0 Calma 6 Sudoeste 0 910.8 -- 76
2020-05-28 02:00:00 14.3 0 Calma 4 Oeste 0 911.1 -- 74
2020-05-28 01:00:00 17 0 Calma 5 Nordeste 0 911.1 -- 70
2020-05-28 00:00:00 17 3 Nordeste 4 Nordeste 0 911 -- 68
2020-05-27 23:00:00 -- -- -- -- -- -- -- -- --
2020-05-27 22:00:00 -- -- -- -- -- -- -- -- --
2020-05-27 21:00:00 -- -- -- -- -- -- -- -- --
2020-05-27 20:00:00 -- -- -- -- -- -- -- -- --
2020-05-27 19:00:00 -- -- -- -- -- -- -- -- --
2020-05-27 18:00:00 -- -- -- -- -- -- -- -- --
2020-05-27 17:00:00 -- -- -- -- -- -- -- -- --
2020-05-27 16:00:00 -- -- -- -- -- -- -- -- --
2020-05-27 15:00:00 -- -- -- -- -- -- -- -- --
2020-05-27 14:00:00 -- -- -- -- -- -- -- -- --
2020-05-27 13:00:00 -- -- -- -- -- -- -- -- --
2020-05-27 12:00:00 -- -- -- -- -- -- -- -- --
2020-05-27 11:00:00 -- -- -- -- -- -- -- -- --
2020-05-27 10:00:00 17.6 0 Calma 4 Sur 0 911.8 -- 74
2020-05-27 09:00:00 15.4 0 Calma 6 Nordeste 0 911.5 -- 81
2020-05-27 08:00:00 13.9 0 Calma 5 Noroeste 0 911.3 -- 91
2020-05-27 07:00:00 11.4 2 Noroeste 5 Noroeste 0 911.2 -- 91
2020-05-27 06:00:00 11.6 4 Noroeste 6 Noroeste 0 910.9 -- 90
2020-05-27 05:00:00 12.5 0 Calma 2 Noroeste 0 910.8 -- 88
2020-05-27 04:00:00 13.8 0 Calma 4 Noroeste 0 910.9 -- 85
2020-05-27 03:00:00 14.3 0 Calma 9 Oeste 0 911.4 -- 82
2020-05-27 02:00:00 13.6 2 Sur 12 Oeste 0 911.4 -- 85
2020-05-27 01:00:00 13.6 2 Oeste 10 Oeste 0 911.3 -- 84
2020-05-27 00:00:00 13.9 3 Oeste 8 Oeste 0 911.3 -- 81
2020-05-26 23:00:00 15 5 Oeste 9 Oeste 0 911 -- 77
2020-05-26 22:00:00 17.1 0 Calma -- -- -- 910.5 -- 66
2020-05-26 21:00:00 -- -- -- -- -- -- -- -- --
2020-05-26 20:00:00 -- -- -- -- -- -- -- -- --
2020-05-26 19:00:00 -- -- -- -- -- -- -- -- --
2020-05-26 18:00:00 -- -- -- -- -- -- -- -- --
2020-05-26 17:00:00 -- 7 Nordeste -- -- -- -- -- --
2020-05-26 16:00:00 -- 7 Sudeste -- -- -- -- -- --
2020-05-26 15:00:00 -- -- -- -- -- -- -- -- --
2020-05-26 14:00:00 -- -- -- -- -- -- -- -- --
2020-05-26 13:00:00 -- 2 Este -- -- -- -- -- --
2020-05-26 12:00:00 -- -- -- -- -- -- -- -- --
2020-05-26 11:00:00 -- 0 Calma -- -- -- -- -- --
2020-05-26 10:00:00 17.9 0 Calma 6 Sudoeste 0 911.7 -- 73
2020-05-26 09:00:00 15.3 0 Calma 9 Oeste 0 911.7 -- 83
2020-05-26 08:00:00 12.1 2 Noroeste 5 Noroeste 0 911.7 -- 93
2020-05-26 07:00:00 10.4 0 Calma 4 Noroeste 0 911.4 -- 93
2020-05-26 06:00:00 10.8 2 Noroeste 6 Noroeste 0 910.9 -- 93
2020-05-26 05:00:00 11.6 0 Calma 11 Oeste 0 910.9 -- 93
2020-05-26 04:00:00 11.4 3 Noroeste 6 Norte 0 911 -- 93
2020-05-26 03:00:00 12.2 4 Noroeste 8 Noroeste 0 911.1 -- 93
2020-05-26 02:00:00 12 3 Oeste 5 Sudoeste 0 911.2 -- 92
2020-05-26 01:00:00 12.6 0 Calma 9 Oeste 0 911.6 -- 92
2020-05-26 00:00:00 13.3 0 Calma 8 Este 0 911.8 -- 92
2020-05-25 23:00:00 13.3 0 Calma 7 Noroeste 0 911.2 -- 91
2020-05-25 22:00:00 14.3 2 Oeste 7 Oeste 0 910.9 -- 89
2020-05-25 21:00:00 16.9 4 Sudoeste -- -- -- 910.3 -- 77
2020-05-25 20:00:00 15.8 17 Nordeste 31 Norte 8.3 909.5 -- 84
2020-05-25 19:00:00 21.2 6 Sudeste 16 Sudeste 0 908.8 -- 60
2020-05-25 18:00:00 21.9 9 Sudeste 19 Sudeste 0 909.3 -- 60
2020-05-25 17:00:00 23.4 2 Sudeste 8 Sur 0 909.1 -- 58
2020-05-25 16:00:00 21.3 2 Este 13 Nordeste 0.1 909.5 -- 71
2020-05-25 15:00:00 16.9 8 Nordeste 41 Sudeste 19.7 910.1 -- 75
2020-05-25 14:00:00 24.3 5 Sudeste 22 Sudeste 0 909.5 -- 49
2020-05-25 13:00:00 25.1 9 Sur 19 Sur 0 909.6 -- 50
2020-05-25 12:00:00 24.6 4 Sudeste 12 Sudeste 0 909.7 -- 52
2020-05-25 11:00:00 23.4 3 Este 10 Este 0 909.9 -- 56
2020-05-25 10:00:00 20.7 0 Calma 6 Sudeste 0 910.2 -- 62
2020-05-25 09:00:00 18.6 2 Sudeste 6 Oeste 0 910.3 -- 75
2020-05-25 08:00:00 15.4 0 Calma 5 Oeste 0 910.4 -- 87
2020-05-25 07:00:00 12.9 3 Noroeste 6 Nordeste 0 909.9 -- 89
2020-05-25 06:00:00 14.3 0 Calma 7 Oeste 0 910 -- 88
2020-05-25 05:00:00 14.6 3 Noroeste 7 Noroeste 0 910.2 -- 88
2020-05-25 04:00:00 15 0 Calma 6 Noroeste 0 910.3 -- 83
2020-05-25 03:00:00 17 0 Calma 6 Noroeste 0 910.4 -- 77
2020-05-25 02:00:00 18.5 2 Sudoeste 14 Oeste 0 910.6 -- 73
2020-05-25 01:00:00 17.9 2 Este 17 Sudeste 0 910.6 -- 77
2020-05-25 00:00:00 18 0 Calma 8 Sudoeste 0 910.3 -- 74
2020-05-24 23:00:00 17.5 0 Calma 6 Noroeste 0 910.4 -- 72
2020-05-24 22:00:00 20.1 4 Noroeste 10 Oeste 0 910.1 -- 62
2020-05-24 21:00:00 22.2 6 Noroeste 9 Noroeste 0 909.8 -- 55
2020-05-24 20:00:00 24.6 6 Oeste 9 Sur 0 910 -- 44
2020-05-24 19:00:00 25.9 2 Sudeste 5 Sudeste 0 910.1 -- 41
2020-05-24 18:00:00 25.5 2 Sur -- -- -- 910.3 -- 43
2020-05-24 17:00:00 25.5 0 Calma 15 Sudeste 0 911 -- 41
2020-05-24 16:00:00 25.3 6 Este 19 Este 0 911.4 -- 41
2020-05-24 15:00:00 24.8 8 Sudeste -- -- -- 911.7 -- 41
2020-05-24 14:00:00 -- -- -- -- -- -- -- -- --
2020-05-24 13:00:00 23.3 9 Este 19 Este 0 912.1 -- 45
2020-05-24 12:00:00 23.4 4 Sudeste 13 Sudeste 0 912.4 -- 47
2020-05-24 11:00:00 21.7 4 Este -- -- -- 912.7 -- 50
2020-05-24 10:00:00 19.9 0 Calma 5 Este 0 912.6 -- 61
2020-05-24 09:00:00 17.9 0 Calma 5 Noroeste 0 912.7 -- 74
2020-05-24 08:00:00 14.2 0 Calma 4 Sur 0 912.5 -- 87
2020-05-24 07:00:00 12.1 0 Calma 7 Noroeste 0 912.1 -- 91
2020-05-24 06:00:00 12.2 0 Calma 7 Sudeste 0 912 -- 90
2020-05-24 05:00:00 13.2 0 Calma 10 Noroeste 0 912.1 -- 88
2020-05-24 04:00:00 13 4 Noroeste 7 Noroeste 0 912.3 -- 89
2020-05-24 03:00:00 13.9 4 Noroeste 8 Noroeste 0 912.2 -- 86
2020-05-24 02:00:00 14.7 4 Noroeste 9 Oeste 0 912.2 -- 77
2020-05-24 01:00:00 15.4 0 Calma 11 Sur 0 912.5 -- 75
2020-05-24 00:00:00 16.5 2 Sudoeste 8 Sur 0 912.5 -- 73
2020-05-23 23:00:00 18 5 Oeste 16 Oeste 0 912.2 -- 66
2020-05-23 22:00:00 19.4 0 Calma 17 Noroeste 0 911.7 -- 61
2020-05-23 21:00:00 22 12 Noroeste 25 Noroeste 0 911.3 -- 52
2020-05-23 20:00:00 25.6 5 Noroeste 22 Noroeste 0 910.8 -- 45
2020-05-23 19:00:00 25.1 9 Noroeste 21 Norte 0 911.2 -- 45
2020-05-23 18:00:00 26.4 7 Noroeste 19 Noroeste 0 911.4 -- 42
2020-05-23 17:00:00 27.3 7 Norte 16 Norte 0 911.4 -- 41
2020-05-23 16:00:00 26.9 7 Norte 16 Nordeste 0 911.7 -- 41
2020-05-23 15:00:00 -- -- -- -- -- -- -- -- --
2020-05-23 14:00:00 26.6 2 Nordeste 14 Oeste 0 912.2 -- 38
2020-05-23 13:00:00 26 2 Norte 12 Sur 0 912.5 -- 39
2020-05-23 12:00:00 25.3 4 Sur -- -- -- 912.6 -- 42
2020-05-23 11:00:00 -- -- -- -- -- -- -- -- --
2020-05-23 10:00:00 20.7 4 Oeste 10 Oeste 0 912.5 -- 58
2020-05-23 09:00:00 18.3 0 Calma 8 Oeste 0 912.2 -- 69
2020-05-23 08:00:00 15.3 4 Oeste 8 Oeste 0 912 -- 77
2020-05-23 07:00:00 11.4 3 Noroeste 7 Oeste 0 911.5 -- 84
2020-05-23 06:00:00 12.3 6 Noroeste 10 Noroeste 0 911.2 -- 82
2020-05-23 05:00:00 13.1 3 Oeste 9 Oeste 0 911.1 -- 77
2020-05-23 04:00:00 12.9 0 Calma 7 Noroeste 0 911.2 -- 80
2020-05-23 03:00:00 13.2 4 Noroeste 11 Oeste 0 911.3 -- 77
2020-05-23 02:00:00 14.1 0 Calma 9 Noroeste 0 911.3 -- 77
2020-05-23 01:00:00 14.8 0 Calma 9 Oeste 0 911.3 -- 77
2020-05-23 00:00:00 16.2 0 Calma 9 Sudoeste 0 911.2 -- 74
2020-05-22 23:00:00 16.9 3 Noroeste 5 Noroeste 0 911 -- 73
2020-05-22 22:00:00 19.5 0 Calma -- -- -- 910.4 -- 62
2020-05-22 21:00:00 -- -- -- -- -- -- -- -- --
2020-05-22 20:00:00 -- -- -- -- -- -- -- -- --
2020-05-22 19:00:00 -- -- -- -- -- -- -- -- --
2020-05-22 18:00:00 -- -- -- -- -- -- -- -- --
2020-05-22 17:00:00 -- -- -- -- -- -- -- -- --
2020-05-22 16:00:00 -- -- -- -- -- -- -- -- --
2020-05-22 15:00:00 -- -- -- -- -- -- -- -- --
2020-05-22 14:00:00 -- -- -- -- -- -- -- -- --
2020-05-22 13:00:00 -- -- -- -- -- -- -- -- --
2020-05-22 12:00:00 -- -- -- -- -- -- -- -- --
2020-05-22 11:00:00 -- -- -- -- -- -- -- -- --
2020-05-22 10:00:00 -- -- -- -- -- -- -- -- --
2020-05-22 09:00:00 18.1 0 Calma 5 Sur 0 910.5 -- 63
2020-05-22 08:00:00 13.9 0 Calma 7 Noroeste 0 910 -- 77
2020-05-22 07:00:00 11.9 5 Noroeste 13 Oeste 0 909.2 -- 81
2020-05-22 06:00:00 10.4 2 Oeste 8 Oeste 0 909.3 -- 85
2020-05-22 05:00:00 10.6 0 Calma 6 Noroeste 0 909 -- 84
2020-05-22 04:00:00 11.1 3 Noroeste 6 Oeste 0 909.2 -- 82
2020-05-22 03:00:00 11.7 2 Noroeste 6 Oeste 0 909.6 -- 77
2020-05-22 02:00:00 13.3 4 Noroeste 8 Noroeste 0 909.8 -- 73
2020-05-22 01:00:00 13.5 2 Noroeste 10 Oeste 0 909.7 -- 71
2020-05-22 00:00:00 15 0 Calma -- -- -- 909.4 1.3 67
2020-05-21 23:00:00 15.3 3 Oeste 7 Oeste 0 909 -- 66
2020-05-21 22:00:00 19.2 0 Calma 12 Noroeste 0 908.4 -- 51
2020-05-21 21:00:00 24.1 2 Oeste 6 Sudoeste 0 908.1 -- 42
2020-05-21 20:00:00 27.1 4 Sur 10 Sudoeste 0 907.4 -- 31
2020-05-21 19:00:00 27.2 5 Sur 13 Sur 0 907.2 -- 30
2020-05-21 18:00:00 27.3 5 Sur 14 Sur 0 907 -- 30
2020-05-21 17:00:00 27 6 Sur 17 Este 0 907 -- 28
2020-05-21 16:00:00 27.5 0 Calma 11 Oeste 0 907.2 -- 26
2020-05-21 15:00:00 26.7 3 Nordeste 13 Sur 0 907.4 -- 26
2020-05-21 14:00:00 26.4 5 Este 13 Nordeste 0 907.6 -- 29
2020-05-21 13:00:00 25.9 4 Este 10 Sudeste 0 907.7 0.1 31
2020-05-21 12:00:00 24.5 5 Este 11 Sudeste 0 907.7 -- 35
2020-05-21 11:00:00 22.5 3 Sur 7 Oeste 0 907.7 -- 41
2020-05-21 10:00:00 18.5 4 Oeste 8 Oeste 0 907.6 -- 48
2020-05-21 09:00:00 13.7 0 Calma 4 Sudoeste 0 907.4 -- 60
2020-05-21 08:00:00 9.8 2 Noroeste 7 Noroeste 0 907.4 -- 76
2020-05-21 07:00:00 7.4 4 Oeste 7 Oeste 0 906.8 -- 82
2020-05-21 06:00:00 7.6 4 Noroeste 6 Noroeste 0 906.5 -- 82
2020-05-21 05:00:00 8.3 0 Calma 7 Noroeste 0 906.4 -- 77
2020-05-21 04:00:00 9.1 3 Oeste 6 Noroeste 0 906.1 -- 76
2020-05-21 03:00:00 10.6 2 Oeste 9 Noroeste 0 906.3 -- 68
2020-05-21 02:00:00 12.1 5 Noroeste 14 Oeste 0 906.5 -- 63
2020-05-21 01:00:00 13.1 6 Oeste 15 Oeste 0 906.1 -- 60
2020-05-21 00:00:00 13.2 0 Calma 7 Oeste 0 906.1 -- 60
2020-05-20 23:00:00 14.1 0 Calma 8 Norte 0 905.8 -- 56
2020-05-20 22:00:00 15.1 0 Calma 9 Noroeste 0 905 -- 52
2020-05-20 21:00:00 20.1 6 Noroeste 9 Noroeste 0 904.7 -- 36
2020-05-20 20:00:00 25.2 5 Noroeste 15 Noroeste 0 904.1 -- 24
2020-05-20 19:00:00 25.7 8 Oeste 19 Oeste 0 904.1 -- 23
2020-05-20 18:00:00 26.1 8 Noroeste 22 Noroeste 0 903.8 -- 23
2020-05-20 17:00:00 25.9 10 Noroeste 21 Noroeste 0 904 -- 22
2020-05-20 16:00:00 25.9 10 Noroeste 22 Noroeste 0 904.2 -- 22
2020-05-20 15:00:00 25.6 5 Noroeste 17 Noroeste 0 904.4 -- 21
2020-05-20 14:00:00 25 4 Oeste 20 Sudoeste 0 904.5 -- 24
2020-05-20 13:00:00 25.1 0 Calma 11 Sur 0 904.9 -- 23
2020-05-20 12:00:00 24 2 Sudeste 8 Sudeste 0 905 -- 23
2020-05-20 11:00:00 21.5 0 Calma 6 Sudeste 0 905 -- 33
2020-05-20 10:00:00 18.7 2 Sudeste 9 Sudoeste 0 905 -- 45
2020-05-20 09:00:00 13.5 4 Oeste 7 Sudoeste 0 905 -- 53
2020-05-20 08:00:00 -- 0 Calma 6 Noroeste 0 -- -- --
2020-05-20 07:00:00 5.9 0 Calma 6 Noroeste 0 904.5 -- 87
2020-05-20 06:00:00 6.8 2 Noroeste 7 Oeste 0 904.7 -- 88
2020-05-20 05:00:00 7.1 3 Noroeste 6 Oeste 0 904.7 -- 87
2020-05-20 04:00:00 7.8 4 Noroeste 6 Noroeste 0 905.1 -- 88
2020-05-20 03:00:00 8.5 3 Noroeste 6 Noroeste 0 905.4 -- 86
2020-05-20 02:00:00 10.3 0 Calma 8 Oeste 0 906.1 -- 82
2020-05-20 01:00:00 11.1 2 Noroeste 6 Noroeste 0 906.2 -- 79
2020-05-20 00:00:00 12.4 5 Noroeste 8 Noroeste 0 906.3 -- 76
2020-05-19 23:00:00 13.4 2 Norte 6 Noroeste 0 906 -- 71
2020-05-19 22:00:00 16.2 2 Noroeste 9 Noroeste 0 905.8 -- 58
2020-05-19 21:00:00 21.4 4 Noroeste 16 Noroeste 0 905.4 -- 39
2020-05-19 20:00:00 23.3 7 Noroeste 21 Norte 0 905.3 -- 34
2020-05-19 19:00:00 22.7 8 Noroeste 22 Noroeste 0 905.5 -- 35
2020-05-19 18:00:00 25.3 9 Noroeste 22 Nordeste 0 905.5 -- 31
2020-05-19 17:00:00 25.4 7 Norte 22 Noroeste 0 905.4 -- 31
2020-05-19 16:00:00 25.3 10 Norte 24 Norte 0 905.6 -- 32
2020-05-19 15:00:00 25 7 Norte 21 Norte 0 905.9 -- 32
2020-05-19 14:00:00 24.5 9 Norte 22 Nordeste 0 906.3 -- 31
2020-05-19 13:00:00 23.3 7 Noroeste 22 Noroeste 0 906.6 -- 32
2020-05-19 12:00:00 22.3 9 Norte 20 Norte 0 907 -- 31
2020-05-19 11:00:00 19.5 2 Oeste 9 Oeste 0 907.1 -- 40
2020-05-19 10:00:00 17.5 0 Calma 12 Oeste 0 907.2 -- 48
2020-05-19 09:00:00 13.1 4 Oeste 7 Oeste 0 907 -- 57
2020-05-19 08:00:00 9 0 Calma 9 Oeste 0 907.3 -- 75
2020-05-19 07:00:00 5.7 3 Oeste 6 Oeste 0 907.1 -- 85
2020-05-19 06:00:00 6.4 0 Calma 9 Oeste 0 906.8 -- 82
2020-05-19 05:00:00 7 4 Noroeste 7 Oeste 0 907.2 -- 83
2020-05-19 04:00:00 7.9 4 Noroeste 9 Oeste 0 907.2 -- 81
2020-05-19 03:00:00 9.4 4 Noroeste 10 Sudoeste 0 907.8 -- 73
2020-05-19 02:00:00 12 3 Noroeste 17 Norte 0 908.1 -- 63
2020-05-19 01:00:00 12.3 3 Norte 13 Noroeste 0 908.4 -- 59
2020-05-19 00:00:00 15.2 6 Noroeste -- -- -- 908.7 -- 48
2020-05-18 23:00:00 16.5 6 Noroeste 15 Norte 0 908.7 -- 47
2020-05-18 22:00:00 17.4 7 Norte 17 Norte 0 908.1 -- 42
2020-05-18 21:00:00 19.6 5 Noroeste 20 Noroeste 0 907.9 -- 34
2020-05-18 20:00:00 21.3 10 Noroeste 28 Oeste 0 907.8 -- 30
2020-05-18 19:00:00 22.1 12 Noroeste 29 Oeste 0 907.9 -- 29
2020-05-18 18:00:00 22.2 14 Noroeste 32 Noroeste 0 908 -- 30
2020-05-18 17:00:00 22.2 16 Noroeste 33 Noroeste 0 908 -- 29
2020-05-18 16:00:00 22.3 17 Noroeste 35 Noroeste 0 908 -- 31
2020-05-18 15:00:00 22.1 15 Noroeste 28 Noroeste 0 908.4 -- 29
2020-05-18 14:00:00 22.1 12 Noroeste 29 Noroeste 0 908.3 -- 29
2020-05-18 13:00:00 21.2 10 Noroeste 30 Norte 0 908.7 -- 28
2020-05-18 12:00:00 20.6 8 Norte 17 Noroeste 0 908.5 -- 26
2020-05-18 11:00:00 19.4 3 Sudeste 9 Sudeste 0 909 -- 34
2020-05-18 10:00:00 14.6 4 Oeste 10 Oeste 0 909 -- 45
2020-05-18 09:00:00 10.5 5 Oeste 10 Oeste 0 909.1 -- 64
2020-05-18 08:00:00 7 5 Oeste 10 Oeste 0 908.6 -- 74
2020-05-18 07:00:00 4.5 4 Noroeste 9 Oeste 0 908.5 -- 85
2020-05-18 06:00:00 4.5 0 Calma 7 Noroeste 0 908.4 -- 88
2020-05-18 05:00:00 4.8 3 Noroeste 5 Noroeste 0 908.6 -- 88
2020-05-18 04:00:00 5.6 0 Calma 6 Noroeste 0 908.3 -- 87
2020-05-18 03:00:00 6.1 3 Noroeste 6 Noroeste 0 908.6 -- 85
2020-05-18 02:00:00 7 0 Calma 5 Noroeste 0 909.2 -- 82
2020-05-18 01:00:00 8.2 3 Noroeste 5 Oeste 0 909.2 -- 77
2020-05-18 00:00:00 10 0 Calma 6 Oeste 0 909.4 -- 65
2020-05-17 23:00:00 13.3 5 Noroeste 17 Noroeste 0 909.2 -- 46
2020-05-17 22:00:00 14.2 6 Noroeste 15 Noroeste 0 908.1 -- 46
2020-05-17 21:00:00 17 5 Noroeste 19 Noroeste 0 907.7 -- 40
2020-05-17 20:00:00 18.9 8 Noroeste 22 Noroeste 0 907.2 -- 37
2020-05-17 19:00:00 19.6 7 Noroeste 21 Noroeste 0 907.1 -- 37
2020-05-17 18:00:00 19.4 8 Noroeste 21 Norte 0 906.9 -- 38
2020-05-17 17:00:00 19.2 5 Norte 15 Noroeste 0 907 -- 38
2020-05-17 16:00:00 19.6 3 Sudeste 15 Nordeste 0 907.1 -- 40
2020-05-17 15:00:00 18.9 5 Este 18 Norte 0 907.6 -- 40
2020-05-17 14:00:00 17.5 8 Norte 18 Norte 0 907.7 -- 41
2020-05-17 13:00:00 17.1 3 Nordeste 14 Norte 0 907.9 -- 42
2020-05-17 12:00:00 16.4 4 Noroeste 17 Nordeste 0 907.8 -- 46
2020-05-17 11:00:00 14.4 8 Nordeste 13 Nordeste 0 907.8 -- 48
2020-05-17 10:00:00 12.2 3 Oeste 12 Sudoeste 0 907.8 -- 60
2020-05-17 09:00:00 9.1 4 Sudoeste 9 Oeste 0 907.7 -- 77
2020-05-17 08:00:00 6.1 0 Calma 5 Nordeste 0 907.4 -- 89
2020-05-17 07:00:00 4.2 0 Calma 5 Noroeste 0 907 -- 88
2020-05-17 06:00:00 5.1 0 Calma 8 Oeste 0 906.7 -- 85
2020-05-17 05:00:00 6.3 0 Calma 8 Noroeste 0 906.8 -- 82
2020-05-17 04:00:00 7 2 Norte 8 Noroeste 0 906.8 -- 77
2020-05-17 03:00:00 7.9 2 Norte 11 Norte 0 906.8 -- 71
2020-05-17 02:00:00 8.8 4 Noroeste 7 Noroeste 0 907 -- 71
2020-05-17 01:00:00 9.3 3 Sur 19 Norte 0 907 -- 64
2020-05-17 00:00:00 9.9 8 Norte 22 Norte 0 906.7 -- 60
2020-05-16 23:00:00 10.9 8 Noroeste 26 Norte 0 906.1 -- 60
2020-05-16 22:00:00 12 8 Norte 19 Norte 0 905.3 -- 57
2020-05-16 21:00:00 13.7 9 Norte 25 Nordeste 0 904.8 -- 55
2020-05-16 20:00:00 15.7 8 Norte 26 Norte 0 903.9 -- 51
2020-05-16 19:00:00 15.4 2 Noroeste 14 Noroeste 0 903.5 -- 54
2020-05-16 18:00:00 14.8 5 Este 17 Sudeste 0 903.4 -- 56
2020-05-16 17:00:00 14.8 5 Sudeste 17 Sudoeste 0 903.6 -- 58
2020-05-16 16:00:00 17.2 2 Sur 18 Nordeste 0 903.3 -- 47
2020-05-16 15:00:00 17.5 8 Nordeste 23 Norte 0 903.6 -- 42
2020-05-16 14:00:00 16.7 12 Norte 26 Norte 0 903.8 -- 49
2020-05-16 13:00:00 15.2 8 Norte 18 Nordeste 0 904.1 -- 54
2020-05-16 12:00:00 14.8 2 Nordeste 14 Nordeste 0 903.8 -- 51
2020-05-16 11:00:00 14.2 6 Nordeste 18 Este 0.1 903.8 -- 57
2020-05-16 10:00:00 13 3 Este 9 Nordeste 0 903.7 -- 69
2020-05-16 09:00:00 10.6 0 Calma 6 Noroeste 0 903.2 -- 90
2020-05-16 08:00:00 8.9 4 Noroeste 6 Noroeste 0 902.9 -- 91
2020-05-16 07:00:00 8.9 0 Calma 5 Sur 0 902.6 -- 91
2020-05-16 06:00:00 8.9 0 Calma 6 Oeste 0 902.1 -- 91
2020-05-16 05:00:00 9.1 0 Calma 5 Sudoeste 0 902.1 -- 91
2020-05-16 04:00:00 9.2 2 Nordeste 6 Nordeste 0 902 -- 91
2020-05-16 03:00:00 8.9 0 Calma 7 Oeste 0 902.1 -- 90
2020-05-16 02:00:00 9.1 2 Sudoeste 5 Oeste 0 902.4 -- 90
2020-05-16 01:00:00 9.4 3 Oeste 6 Sur 0 902.5 -- 90
2020-05-16 00:00:00 9.4 0 Calma 8 Oeste 0.5 902.3 -- 90
2020-05-15 23:00:00 9.5 2 Norte 8 Norte 0.3 901.8 -- 90
2020-05-15 22:00:00 10 2 Oeste 8 Norte 0.6 901.1 -- 88
2020-05-15 21:00:00 10.7 0 Calma 6 Norte 1 900.8 -- 84
2020-05-15 20:00:00 10.8 3 Oeste 10 Noroeste 0.4 900.4 -- 84
2020-05-15 19:00:00 10.6 4 Sur 24 Sur 2.4 899.9 -- 83
2020-05-15 18:00:00 12.1 14 Sudeste 29 Norte 0.1 899.4 -- 69
2020-05-15 17:00:00 13.3 12 Norte 25 Norte 0 898.6 -- 65
2020-05-15 16:00:00 16.4 7 Norte 19 Norte 0.1 898.9 -- 54
2020-05-15 15:00:00 13.2 9 Noroeste 17 Noroeste 1.8 899.3 -- 76
2020-05-15 14:00:00 12.1 5 Este 16 Norte 0.3 899.7 -- 72
2020-05-15 13:00:00 13.3 3 Nordeste 9 Nordeste 0.1 899.6 -- 67
2020-05-15 12:00:00 12.2 3 Noroeste 6 Noroeste 0.2 899.6 -- 74
2020-05-15 11:00:00 9.7 0 Calma 6 Noroeste 0 899.7 -- 85
2020-05-15 10:00:00 8.4 0 Calma 4 Sur 0 899.4 -- 90
2020-05-15 09:00:00 7.2 0 Calma 9 Norte 0 899 -- 92
2020-05-15 08:00:00 5.7 2 Nordeste 4 Nordeste 0 898.5 -- 92
2020-05-15 07:00:00 5.3 0 Calma 7 Oeste 0.1 897.7 -- 92
2020-05-15 06:00:00 4.7 0 Calma 6 Noroeste 0 897.3 -- 92
2020-05-15 05:00:00 5.1 0 Calma 3 Norte 0 897.2 -- 91
2020-05-15 04:00:00 5.7 0 Calma 9 Oeste 0 897.1 -- 90
2020-05-15 03:00:00 5.9 4 Oeste 6 Oeste 0 896.9 -- 90
2020-05-15 02:00:00 6.7 0 Calma 4 Oeste 0 897 -- 89
2020-05-15 01:00:00 7.8 0 Calma 5 Noroeste 0 896.9 -- 88
2020-05-15 00:00:00 8.2 3 Noroeste 6 Noroeste 0 896.6 -- 88
2020-05-14 23:00:00 9 0 Calma 5 Noroeste 0 896.3 -- 85
2020-05-14 22:00:00 9.6 2 Oeste 5 Sudoeste 0 895.6 -- 83
2020-05-14 21:00:00 10 0 Calma 4 Este 0 894.8 -- 81
2020-05-14 20:00:00 10.1 4 Oeste 9 Oeste 0 894.1 -- 77
2020-05-14 19:00:00 11.1 4 Sudeste 10 Sudeste 0 893.4 -- 73
2020-05-14 18:00:00 11 6 Sudeste 12 Sudeste 0 893.1 -- 71
2020-05-14 17:00:00 11.4 3 Oeste 12 Oeste 0 892.6 -- 65
2020-05-14 16:00:00 11.4 5 Oeste 10 Sudoeste 0 892.6 -- 73
2020-05-14 15:00:00 11.2 6 Sur 13 Nordeste 0 892.2 -- 77
2020-05-14 14:00:00 9.5 6 Sudeste 16 Sudeste 0 892.4 -- 85
2020-05-14 13:00:00 9.4 5 Este 15 Sudeste 0.7 892.5 -- 90
2020-05-14 12:00:00 8.4 6 Este 15 Este 1.4 892.4 -- 90
2020-05-14 11:00:00 8.3 6 Este 15 Este 0.7 891.8 -- 90
2020-05-14 10:00:00 8.3 5 Este 13 Este 0 891.3 -- 92
2020-05-14 09:00:00 8.6 6 Sudeste 20 Este 0.3 891.1 -- 92
2020-05-14 08:00:00 7.9 0 Calma 13 Sudeste 0 890.8 -- 92
2020-05-14 07:00:00 7.3 0 Calma 4 Oeste 0 890.5 -- 91
2020-05-14 06:00:00 7 0 Calma 5 Nordeste 0 890.6 -- 91
2020-05-14 05:00:00 7.4 3 Oeste 7 Noroeste 0 890.8 -- 91
2020-05-14 04:00:00 7.4 5 Noroeste 9 Noroeste 0 890.8 -- 91
2020-05-14 03:00:00 7.5 2 Sudoeste 5 Sur 0 891.2 -- 90
2020-05-14 02:00:00 8 0 Calma 10 Noroeste 0 892.3 -- 89
2020-05-14 01:00:00 7.5 3 Sur 6 Sur 0 892.5 -- 86
2020-05-14 00:00:00 8.9 0 Calma 6 Noroeste 0 892.5 -- 83
2020-05-13 23:00:00 10.1 0 Calma 4 Noroeste 0 892.8 -- 81
2020-05-13 22:00:00 10.7 2 Norte 8 Nordeste 0 892.8 -- 75
2020-05-13 21:00:00 12.5 2 Nordeste 12 Nordeste 0 892.7 -- 67
2020-05-13 20:00:00 13.8 4 Este 13 Este 0 892 -- 66
2020-05-13 19:00:00 12.9 6 Este 14 Este 0 892.1 -- 68
2020-05-13 18:00:00 14 2 Este 13 Sudoeste 0 892.3 -- 63
2020-05-13 17:00:00 13.4 5 Este 18 Sudeste 0 892.4 -- 65
2020-05-13 16:00:00 13.8 10 Sudeste 22 Sur 0 892.9 -- 63
2020-05-13 15:00:00 13.8 6 Sudeste 18 Sudeste 0 892.9 -- 74
2020-05-13 14:00:00 12.8 7 Sudeste 13 Sur 0.6 893.3 -- 73
2020-05-13 13:00:00 11.5 6 Sudeste 13 Sudeste 0 893.3 -- 76
2020-05-13 12:00:00 11.8 5 Este 12 Nordeste 0 893.2 -- 77
2020-05-13 11:00:00 10.4 4 Sudeste 11 Este 0 893.3 -- 84
2020-05-13 10:00:00 9.1 4 Este 9 Este 0 893.1 -- 91
2020-05-13 09:00:00 8.5 0 Calma 4 Este 0.1 892.6 -- 91
2020-05-13 08:00:00 8.2 0 Calma 5 Nordeste 0.1 892.4 -- 92
2020-05-13 07:00:00 8 0 Calma 5 Nordeste 0.1 892.2 -- 92
2020-05-13 06:00:00 7.9 0 Calma 4 Este 0 892.1 -- 91
2020-05-13 05:00:00 8.1 0 Calma 6 Este 0 892.1 -- 91
2020-05-13 04:00:00 7.8 0 Calma 4 Este 0.1 892 -- 90
2020-05-13 03:00:00 7.8 0 Calma 2 Este 0 892 -- 90
2020-05-13 02:00:00 8.1 0 Calma 2 Este 0.4 892.7 -- 90
2020-05-13 01:00:00 7.8 0 Calma 8 Este 1 893 -- 90
2020-05-13 00:00:00 8 4 Este 10 Este 1.2 893.6 -- 90
2020-05-12 23:00:00 8.6 3 Este 9 Sudeste 1.7 893.9 -- 89
2020-05-12 22:00:00 9.3 0 Calma 4 Este 1.6 893.6 -- 88
2020-05-12 21:00:00 9.4 0 Calma 2 Sur 0.8 893.5 -- 86
2020-05-12 20:00:00 9.8 0 Calma 5 Sudoeste 0.8 893.4 -- 84
2020-05-12 19:00:00 10.3 3 Oeste 6 Oeste 0.9 893.8 -- 81
2020-05-12 18:00:00 10.9 0 Calma 10 Noroeste 0.7 894 -- 80
2020-05-12 17:00:00 10.5 3 Sudoeste 21 Sur 1.1 894.7 -- 84
2020-05-12 16:00:00 10.7 12 Sudeste 26 Sudeste 0.1 895.2 -- 83
2020-05-12 15:00:00 13.5 6 Sudeste 11 Este 0 895.1 -- 64
2020-05-12 14:00:00 14.2 5 Sudeste 13 Sur 0 895.8 -- 63
2020-05-12 13:00:00 13.3 6 Sudeste 16 Sur 0 896.7 -- 69
2020-05-12 12:00:00 12.8 0 Calma 9 Sur 0 896.9 -- 70
2020-05-12 11:00:00 12.5 3 Sudoeste 10 Oeste 0 897.1 -- 77
2020-05-12 10:00:00 -- 6 Oeste 9 Oeste 0.1 -- -- --
2020-05-12 09:00:00 9.9 0 Calma 8 Nordeste 0 897.3 -- 93
2020-05-12 08:00:00 8.9 0 Calma 6 Nordeste 0 897.7 -- 94
2020-05-12 07:00:00 8.7 0 Calma 10 Este 0 897.6 -- 93
2020-05-12 06:00:00 6.8 0 Calma 10 Sudeste 0 897.9 -- 93
2020-05-12 05:00:00 6.2 5 Oeste 8 Oeste 0 896.7 -- 93
2020-05-12 04:00:00 6.8 3 Noroeste 5 Noroeste 0 896.9 -- 93
2020-05-12 03:00:00 7.3 0 Calma 5 Noroeste 0 897.8 -- 93
2020-05-12 02:00:00 8.1 3 Noroeste 6 Noroeste 0 898.5 -- 93
2020-05-12 01:00:00 8.8 4 Noroeste 5 Noroeste 0 898.4 -- 90
2020-05-12 00:00:00 10.7 0 Calma 6 Sur 0 898.3 -- 88
2020-05-11 23:00:00 11.3 2 Nordeste 10 Nordeste 0 898.1 -- 84
2020-05-11 22:00:00 11.8 5 Nordeste 12 Norte 0 897.7 -- 83
2020-05-11 21:00:00 12.3 5 Norte 9 Nordeste 0 897.1 -- 84
2020-05-11 20:00:00 13 5 Nordeste 10 Nordeste 1.1 896.3 -- 78
2020-05-11 19:00:00 14.3 6 Este 12 Este 0 896.4 -- 68
2020-05-11 18:00:00 14.4 3 Este 16 Sudeste 0.1 896.2 -- 74
2020-05-11 17:00:00 12.8 4 Sudeste 19 Este 5.4 896.2 -- 77
2020-05-11 16:00:00 16.1 8 Nordeste 24 Oeste 0 895.4 -- 56
2020-05-11 15:00:00 15.4 12 Oeste 28 Sudoeste 0 895.5 -- 52
2020-05-11 14:00:00 15.9 15 Sur 30 Sudoeste 0 895.1 -- 53
2020-05-11 13:00:00 16.8 11 Sudeste 25 Sudeste 0 895.5 -- 51
2020-05-11 12:00:00 15.2 6 Sur 23 Sudoeste 0 895.6 -- 48
2020-05-11 11:00:00 15.1 12 Sur 28 Sur 0 895.5 -- 50
2020-05-11 10:00:00 13.2 6 Sur 17 Sur 0 895.5 -- 57
2020-05-11 09:00:00 12.5 2 Este 9 Nordeste 0 894.8 -- 64
2020-05-11 08:00:00 8.7 0 Calma 5 Noroeste 0 895 -- 84
2020-05-11 07:00:00 6.4 3 Noroeste 7 Noroeste 0 894.8 -- 87
2020-05-11 06:00:00 6.1 4 Noroeste 7 Norte 0 894.5 -- 84
2020-05-11 05:00:00 8 0 Calma 4 Oeste 0 894.4 -- 79
2020-05-11 04:00:00 8.6 0 Calma 12 Noroeste 0 894.3 -- 72
2020-05-11 03:00:00 9.4 4 Sudoeste 14 Oeste 0 894.5 -- 65
2020-05-11 02:00:00 10.8 4 Sudoeste 18 Oeste 0 894.6 -- 60
2020-05-11 01:00:00 10.9 0 Calma 27 Sudoeste 0 894.9 -- 58
2020-05-11 00:00:00 11.4 7 Oeste 21 Oeste 0 894.7 -- 56
2020-05-10 23:00:00 11.1 6 Oeste 17 Oeste 0 894.6 -- 54
2020-05-10 22:00:00 11.7 5 Oeste 23 Oeste 0 894.1 -- 50
2020-05-10 21:00:00 13.1 5 Oeste 26 Oeste 0 893.9 -- 45
2020-05-10 20:00:00 14.6 10 Oeste 28 Oeste 0 893.2 -- 42
2020-05-10 19:00:00 14.8 16 Oeste 28 Oeste 0 893 -- 41
2020-05-10 18:00:00 15 14 Noroeste 28 Oeste 0 893.1 -- 43
2020-05-10 17:00:00 16.1 15 Oeste 28 Oeste 0 893.2 -- 43
2020-05-10 16:00:00 16 11 Oeste 28 Noroeste 0.1 893.1 -- 43
2020-05-10 15:00:00 13.9 13 Oeste 31 Noroeste 0 893.6 -- 47
2020-05-10 14:00:00 13.5 15 Oeste 30 Noroeste 0 893.2 -- 47
2020-05-10 13:00:00 13.2 12 Oeste 25 Noroeste 0 893.3 -- 48
2020-05-10 12:00:00 12.7 15 Noroeste 28 Noroeste 0 893.1 -- 55
2020-05-10 11:00:00 13 4 Sudeste 12 Sudeste 0.1 893.6 -- 60
2020-05-10 10:00:00 10.4 7 Noroeste 22 Noroeste 0 894 -- 70
2020-05-10 09:00:00 8.9 9 Noroeste 22 Oeste 0 893.5 -- 75
2020-05-10 08:00:00 8.5 5 Noroeste 13 Noroeste 0.3 893.7 -- 84
2020-05-10 07:00:00 9.1 3 Nordeste 12 Oeste 3.9 893.2 -- 89
2020-05-10 06:00:00 10.2 0 Calma 13 Sudeste 0.2 893.3 -- 88
2020-05-10 05:00:00 10.7 2 Este 9 Este 0 893.9 -- 80
2020-05-10 04:00:00 10.9 3 Este 7 Este 0 894.1 -- 76
2020-05-10 03:00:00 11.5 2 Noroeste 8 Oeste 0 894.4 -- 73
2020-05-10 02:00:00 12 0 Calma 7 Sudoeste 0 894.6 -- 66
2020-05-10 01:00:00 12.3 3 Sur 8 Sudoeste 0 895.1 -- 67
2020-05-10 00:00:00 12.3 0 Calma 6 Sur 0 895.5 -- 65
2020-05-09 23:00:00 12.7 3 Noroeste 9 Sudoeste 0 895.8 -- 57
2020-05-09 22:00:00 14.6 3 Sudoeste 14 Sudoeste 0 895.8 -- 48
2020-05-09 21:00:00 16.5 8 Sur 19 Sur 0 895.3 -- 46
2020-05-09 20:00:00 18.1 8 Sur 24 Sur 0 895.1 -- 43
2020-05-09 19:00:00 18.3 10 Sudeste 23 Sur 0 895.5 -- 42
2020-05-09 18:00:00 19.1 11 Sur 27 Sur 0 895.9 -- 42
2020-05-09 17:00:00 18.6 10 Sur 25 Sudeste 0 897.1 -- 42
2020-05-09 16:00:00 18.5 13 Sur 26 Sur 0 897.4 -- 43
2020-05-09 15:00:00 18.5 12 Sur 24 Sur 0 897.9 -- 45
2020-05-09 14:00:00 17.5 13 Sur 27 Sur 0 898.4 -- 50
2020-05-09 13:00:00 18.2 15 Sudeste -- -- -- 898.6 -- 48
2020-05-09 12:00:00 17.6 11 Sudeste -- -- -- 898.8 -- 64
2020-05-09 11:00:00 17 9 Sudeste 17 Sudeste 0 899 -- 67
2020-05-09 10:00:00 14.6 5 Nordeste 12 Este 0 899.4 -- 76
2020-05-09 09:00:00 12.6 0 Calma 5 Sur 0 899.5 -- 85
2020-05-09 08:00:00 9.7 0 Calma 5 Noroeste 0 899.3 -- 91
2020-05-09 07:00:00 8.5 0 Calma 7 Noroeste 0 899 -- 91
2020-05-09 06:00:00 9.1 4 Noroeste 6 Noroeste 0 899.2 -- 90
2020-05-09 05:00:00 9.5 0 Calma 5 Noroeste 0 899.4 -- 88
2020-05-09 04:00:00 10.7 2 Noroeste 4 Noroeste 0 899.5 -- 85
2020-05-09 03:00:00 12.2 3 Noroeste 10 Sudeste 0 900 -- 81
2020-05-09 02:00:00 13.7 2 Noroeste 7 Oeste 0 899.9 -- 77
2020-05-09 01:00:00 14 3 Noroeste 5 Noroeste 0 900.1 -- 76
2020-05-09 00:00:00 13.5 0 Calma 6 Noroeste 0 900 -- 73
2020-05-08 23:00:00 14 0 Calma 7 Noroeste 0 900.2 -- 70
2020-05-08 22:00:00 -- -- -- -- -- -- -- -- --
2020-05-08 21:00:00 -- -- -- -- -- -- -- -- --
2020-05-08 20:00:00 -- -- -- -- -- -- -- -- --
2020-05-08 19:00:00 -- -- -- -- -- -- -- -- --
2020-05-08 18:00:00 -- -- -- -- -- -- -- -- --
2020-05-08 17:00:00 -- -- -- -- -- -- -- -- --
2020-05-08 16:00:00 -- -- -- -- -- -- -- -- --
2020-05-08 15:00:00 -- -- -- -- -- -- -- -- --
2020-05-08 14:00:00 -- -- -- -- -- -- -- -- --
2020-05-08 13:00:00 -- -- -- -- -- -- -- -- --
2020-05-08 12:00:00 19.1 0 Calma -- -- -- 902.6 -- 47
2020-05-08 11:00:00 -- 3 Sudeste 8 Este 0.1 -- -- --
2020-05-08 10:00:00 16 0 Calma 5 Nordeste 0 903.5 -- 66
2020-05-08 09:00:00 13.2 0 Calma 3 Sur 0.1 903.3 -- 85
2020-05-08 08:00:00 11 0 Calma 7 Noroeste 0 903 -- 91
2020-05-08 07:00:00 11 4 Noroeste 8 Norte 0.1 902.8 -- 91
2020-05-08 06:00:00 11.7 4 Nordeste 12 Nordeste 0.8 902.8 -- 90
2020-05-08 05:00:00 -- -- -- -- -- -- -- -- --
2020-05-08 04:00:00 -- -- -- -- -- -- -- -- --
2020-05-08 03:00:00 -- -- -- -- -- -- -- -- --
2020-05-08 02:00:00 -- -- -- -- -- -- -- -- --
2020-05-08 01:00:00 -- -- -- -- -- -- -- -- --
2020-05-08 00:00:00 -- -- -- -- -- -- -- -- --
2020-05-07 23:00:00 -- -- -- -- -- -- -- -- --
2020-05-07 22:00:00 -- -- -- -- -- -- -- -- --
2020-05-07 21:00:00 -- -- -- -- -- -- -- -- --
2020-05-07 20:00:00 -- -- -- -- -- -- -- -- --
2020-05-07 19:00:00 -- -- -- -- -- -- -- -- --
2020-05-07 18:00:00 -- -- -- -- -- -- -- -- --
2020-05-07 17:00:00 -- -- -- -- -- -- -- -- --
2020-05-07 16:00:00 -- -- -- -- -- -- -- -- --
2020-05-07 15:00:00 -- -- -- -- -- -- -- -- --
2020-05-07 14:00:00 -- -- -- -- -- -- -- -- --
2020-05-07 13:00:00 -- -- -- -- -- -- -- -- --
2020-05-07 12:00:00 -- -- -- -- -- -- -- -- --
2020-05-07 11:00:00 17.2 5 Oeste 12 Sudoeste 0 904.6 -- 60
2020-05-07 10:00:00 14.5 3 Oeste 8 Oeste 0 904.2 -- 65
2020-05-07 09:00:00 -- 4 Oeste 7 Oeste 0 -- -- --
2020-05-07 08:00:00 8.7 0 Calma 5 Oeste 0 904.6 -- 84
2020-05-07 07:00:00 8.3 4 Oeste 9 Norte 0 904.2 -- 82
2020-05-07 06:00:00 8.3 4 Oeste 9 Oeste 0 904 -- 84
2020-05-07 05:00:00 8.3 0 Calma 7 Noroeste 0 904 -- 84
2020-05-07 04:00:00 8.3 0 Calma 11 Noroeste 0 904.6 -- 83
2020-05-07 03:00:00 8.7 5 Oeste 8 Oeste 0 904.9 -- 82
2020-05-07 02:00:00 8.8 0 Calma 18 Noroeste 0 904.9 -- 81
2020-05-07 01:00:00 10.4 5 Oeste 9 Oeste 0 905.1 -- 77
2020-05-07 00:00:00 10.8 3 Oeste 7 Sudoeste 0 904.9 -- 75
2020-05-06 23:00:00 11.6 3 Noroeste 5 Noroeste 0 905.1 -- 69
2020-05-06 22:00:00 14.5 2 Norte 10 Noroeste 0 904.3 -- 56
2020-05-06 21:00:00 18.2 0 Calma 13 Sudeste 0 904.2 -- 43
2020-05-06 20:00:00 21 6 Sudeste 14 Sudeste 0 903.9 -- 34
2020-05-06 19:00:00 22.7 0 Calma 12 Sudeste 0 903.9 -- 31
2020-05-06 18:00:00 22.7 0 Calma 15 Sur 0 903.8 -- 31
2020-05-06 17:00:00 22.6 4 Sudoeste 17 Sur 0 903.9 -- 31
2020-05-06 16:00:00 22.3 3 Sudoeste 22 Sudoeste 0 904.5 -- 33
2020-05-06 15:00:00 21.1 4 Sudoeste 17 Sur 0 904.6 -- 33
2020-05-06 14:00:00 19.8 6 Sudeste 17 Sudeste 0 904.8 -- 36
2020-05-06 13:00:00 19.9 4 Sur 20 Sur 0 905.2 -- 35
2020-05-06 12:00:00 19.5 6 Sur 16 Sudeste 0 905.1 -- 39
2020-05-06 11:00:00 17.5 0 Calma 9 Oeste 0 905.1 -- 47
2020-05-06 10:00:00 14 5 Oeste 9 Oeste 0 904.8 -- 59
2020-05-06 09:00:00 10.7 4 Oeste 9 Sudoeste 0 904.7 -- 70
2020-05-06 08:00:00 7 2 Sudoeste 6 Oeste 0 904.7 -- 83
2020-05-06 07:00:00 5.2 0 Calma 9 Oeste 0 904.2 -- 83
2020-05-06 06:00:00 6.2 4 Oeste 8 Oeste 0 903.8 -- 81
2020-05-06 05:00:00 6.9 2 Noroeste 12 Oeste 0 904 -- 77
2020-05-06 04:00:00 7 3 Noroeste 9 Oeste 0 903.7 -- 79
2020-05-06 03:00:00 6.9 3 Noroeste 5 Oeste 0 903.7 -- 80
2020-05-06 02:00:00 7.7 0 Calma 6 Oeste 0 904 -- 76
2020-05-06 01:00:00 8.5 5 Oeste 9 Oeste 0 904 -- 74
2020-05-06 00:00:00 9.3 0 Calma 4 Noroeste 0 904 -- 71
2020-05-05 23:00:00 11.2 0 Calma 11 Norte 0 903.9 -- 60
2020-05-05 22:00:00 -- 6 Norte -- -- -- -- -- --
2020-05-05 21:00:00 17.1 0 Calma 18 Sudeste 0 902.7 -- 40
2020-05-05 20:00:00 19.1 8 Sudeste 24 Sudeste 0 902.4 -- 31
2020-05-05 19:00:00 20.1 8 Sudeste 23 Sur 0 902.3 -- 30
2020-05-05 18:00:00 20.6 8 Sudeste 23 Sudeste 0 902.6 -- 30
2020-05-05 17:00:00 20.5 10 Sudeste 22 Sur 0 902.3 -- 33
2020-05-05 16:00:00 19.7 9 Este 23 Sudeste 0 902.6 -- 33
2020-05-05 15:00:00 19.5 12 Sur 22 Sudeste 0 902.8 -- 36
2020-05-05 14:00:00 19.4 8 Este 21 Sudeste 0 902.8 -- 39
2020-05-05 13:00:00 18.8 7 Sudeste 19 Sudeste 0 902.8 -- 43
2020-05-05 12:00:00 18.1 6 Este 15 Este 0 903 -- 47
2020-05-05 11:00:00 17.4 3 Norte 10 Norte 0 902.8 -- 55
2020-05-05 10:00:00 16 3 Este 7 Nordeste 0 902.6 -- 58
2020-05-05 09:00:00 13.1 0 Calma 7 Este 0.2 902.7 -- 68
2020-05-05 08:00:00 9.2 3 Noroeste 7 Norte 0 902.4 -- 73
2020-05-05 07:00:00 6.9 3 Oeste 13 Oeste 0 901.7 -- 73
2020-05-05 06:00:00 7 3 Noroeste 13 Noroeste 0 901.5 -- 73
2020-05-05 05:00:00 7.1 0 Calma 6 Sudoeste 0 901.1 -- 77
2020-05-05 04:00:00 9.7 0 Calma 9 Noroeste 0 900.8 -- 72
2020-05-05 03:00:00 11.4 0 Calma 13 Oeste 0 901.2 -- 77
2020-05-05 02:00:00 12.5 0 Calma 5 Oeste 0 901.5 -- 76
2020-05-05 01:00:00 -- 3 Norte 9 Noroeste 0 -- -- --
2020-05-05 00:00:00 15.4 4 Oeste 8 Oeste 0 901.5 -- 67
2020-05-04 23:00:00 17 0 Calma 13 Noroeste 0 901.1 -- 54
2020-05-04 22:00:00 20.5 5 Sur 28 Sur 0 900.4 -- 40
2020-05-04 21:00:00 -- -- -- -- -- -- -- -- --
2020-05-04 20:00:00 -- -- -- -- -- -- -- -- --
2020-05-04 19:00:00 -- -- -- -- -- -- -- -- --
2020-05-04 18:00:00 -- -- -- -- -- -- -- -- --
2020-05-04 17:00:00 -- -- -- -- -- -- -- -- --
2020-05-04 16:00:00 -- -- -- -- -- -- -- -- --
2020-05-04 15:00:00 -- -- -- -- -- -- -- -- --
2020-05-04 14:00:00 24 15 Sudeste -- -- -- 900.7 -- 42
2020-05-04 13:00:00 -- -- -- -- -- -- -- -- --
2020-05-04 12:00:00 -- -- -- -- -- -- -- -- --
2020-05-04 11:00:00 19.4 3 Norte 7 Noroeste 0 902 -- 62
2020-05-04 10:00:00 16.7 3 Oeste 11 Oeste 0 902.4 -- 68
2020-05-04 09:00:00 14.6 0 Calma 5 Noroeste 0 902.2 -- 74
2020-05-04 08:00:00 10.2 0 Calma 5 Norte 0 902.1 -- 88
2020-05-04 07:00:00 9.1 0 Calma 7 Oeste 0 902 -- 86
2020-05-04 06:00:00 9.6 4 Oeste 6 Oeste 0 902.1 -- 85
2020-05-04 05:00:00 10.6 5 Noroeste 10 Oeste 0 902.4 -- 82
2020-05-04 04:00:00 11.3 3 Noroeste 7 Oeste 0 902.9 -- 82
2020-05-04 03:00:00 11.3 0 Calma 6 Oeste 0 903.4 -- 82
2020-05-04 02:00:00 11.6 2 Oeste 6 Noroeste 0 903.6 -- 81
2020-05-04 01:00:00 12.4 3 Oeste 6 Oeste 0 904 -- 77
2020-05-04 00:00:00 13.3 4 Noroeste 7 Noroeste 0 904 -- 75
2020-05-03 23:00:00 14 0 Calma 7 Noroeste 0 903.9 -- 71
2020-05-03 22:00:00 16.6 0 Calma 6 Este 0 903.7 -- 61
2020-05-03 21:00:00 20.5 0 Calma 11 Sudeste 0 903.5 -- 45
2020-05-03 20:00:00 22.7 7 Sudeste 24 Sudeste 0 903.6 -- 36
2020-05-03 19:00:00 23.5 11 Sudeste 24 Sur 0 903.6 -- 36
2020-05-03 18:00:00 23.9 10 Sudeste 23 Sudeste 0 903.8 -- 34
2020-05-03 17:00:00 24.1 13 Sudeste 26 Sudeste 0 904.1 -- 35
2020-05-03 16:00:00 24.1 11 Sudeste 27 Sudeste 0 904.5 -- 37
2020-05-03 15:00:00 23.3 9 Sudeste 22 Este 0 905 -- 41
2020-05-03 14:00:00 22.4 9 Sudeste 18 Este 0 905.2 -- 42
2020-05-03 13:00:00 21.5 8 Sudeste 18 Sudeste 0 905.8 -- 43
2020-05-03 12:00:00 20.9 5 Sudeste 12 Este 0 906.1 -- 46
2020-05-03 11:00:00 19.1 0 Calma 7 Sur 0 906.1 -- 51
2020-05-03 10:00:00 15 4 Oeste 8 Oeste 0 906.2 -- 62
2020-05-03 09:00:00 11.9 0 Calma 7 Oeste 0 906.1 -- 77
2020-05-03 08:00:00 8.1 0 Calma 5 Norte 0 905.9 -- 91
2020-05-03 07:00:00 7.2 0 Calma 8 Oeste 0 905.7 -- 90
2020-05-03 06:00:00 7.1 0 Calma 3 Noroeste 0 905.8 -- 90
2020-05-03 05:00:00 8.1 0 Calma 5 Oeste 0 905.8 -- 88
2020-05-03 04:00:00 9.1 5 Oeste 9 Oeste 0 905.9 -- 88
2020-05-03 03:00:00 9.2 3 Noroeste 8 Oeste 0 906.2 -- 85
2020-05-03 02:00:00 10.7 4 Noroeste 8 Oeste 0 906.5 -- 85
2020-05-03 01:00:00 11.2 0 Calma 10 Sudeste 0 906.7 -- 81
2020-05-03 00:00:00 11.8 0 Calma 8 Sur 0 906.9 -- 77